Alkol, West Virginia
Current Conditions -  °F | °C
As of 10:54 PM on Saturday 25 Oct 2014 (Local Time) from KCRW Reporting Station
Clear Clear  
Wind Chill: 61°   Ceiling: Unl
Heat Index: 61°   Visibility: 10mi
Dew Point: 52°   Wind: 10mph
Humidity: 72%   Direction: 250°WSW
Pressure: 29.89"   Gusts: NA
Location:  38.16°N, 81.92°W
Report Text: KCRW 260254Z 25009KT 10SM CLR 16/11 A2989 RMK AO2 SLP119 T01610111 56008 $
Loading
Personal Weather Stations






























Interactive Weather Map
Tropical Storm Tracking
New forecast layout! Learn more

10-Day Weather Forecast

Advertisements
Track Severe Weather on mobile